Time;durP1;ratioP1;P1;durP2;ratioP2;P2;SDS_P1;SDS_P2;PMS_P1;PMS_P2;Temp;Humidity;BMP_temperature;BMP_pressure;BME280_temperature;BME280_humidity;BME280_pressure;Samples;Min_cycle;Max_cycle;Signal;HPM_P1;HPM_P2
2022/08/29 00:01:35;;;;;;;2.95;1.70;;;15.00;99.90;;;;;;5136145;28;20194;-85
2022/08/29 00:04:03;;;;;;;2.40;1.60;;;15.00;99.90;;;;;;5121419;28;20188;-87
2022/08/29 00:06:30;;;;;;;2.65;1.52;;;15.00;99.90;;;;;;5095712;28;20197;-88
2022/08/29 00:08:57;;;;;;;2.13;1.40;;;15.00;99.90;;;;;;5096233;28;20200;-88
2022/08/29 00:11:25;;;;;;;1.80;1.20;;;15.00;99.90;;;;;;5101267;28;20223;-87
2022/08/29 00:13:52;;;;;;;2.10;1.63;;;15.00;99.90;;;;;;5116036;28;20223;-87
2022/08/29 00:16:19;;;;;;;1.73;1.40;;;15.00;99.90;;;;;;5116393;28;20196;-88
2022/08/29 00:18:46;;;;;;;1.88;1.60;;;14.90;99.90;;;;;;5116072;28;20341;-88
2022/08/29 00:21:14;;;;;;;4.97;1.95;;;14.90;99.90;;;;;;5116176;28;20208;-88
2022/08/29 00:23:41;;;;;;;2.87;1.90;;;14.90;99.90;;;;;;5115806;28;20200;-83
2022/08/29 00:26:08;;;;;;;2.20;1.60;;;14.80;99.90;;;;;;5116114;28;20204;-88
2022/08/29 00:28:36;;;;;;;2.07;1.60;;;14.80;99.90;;;;;;5095483;28;20643;-87
2022/08/29 00:31:03;;;;;;;2.40;1.83;;;14.80;99.90;;;;;;5093850;28;20624;-89
2022/08/29 00:33:31;;;;;;;1.83;1.50;;;14.70;99.90;;;;;;5106950;28;20292;-87
2022/08/29 00:35:58;;;;;;;2.53;1.73;;;14.70;99.90;;;;;;5095826;28;20205;-87
2022/08/29 00:38:24;;;;;;;1.92;1.20;;;14.70;99.90;;;;;;5095598;28;20206;-88
2022/08/29 00:40:54;;;;;;;1.98;1.55;;;14.60;99.90;;;;;;5095677;28;20192;-87
2022/08/29 00:43:26;;;;;;;3.90;2.03;;;14.60;99.90;;;;;;5095693;28;20205;-86
2022/08/29 00:46:04;;;;;;;3.23;1.70;;;14.50;99.90;;;;;;5095097;28;20224;-82
2022/08/29 00:48:34;;;;;;;2.43;1.73;;;14.50;99.90;;;;;;5095653;28;20275;-86
2022/08/29 00:51:03;;;;;;;1.73;1.43;;;14.50;99.90;;;;;;5095559;28;20196;-88
2022/08/29 00:53:35;;;;;;;2.17;1.60;;;14.50;99.90;;;;;;5095313;28;20208;-87
2022/08/29 00:56:03;;;;;;;1.30;1.20;;;14.50;99.90;;;;;;5094769;28;20192;-87
2022/08/29 00:58:34;;;;;;;3.27;1.50;;;14.40;99.90;;;;;;5105347;28;20208;-86
2022/08/29 01:01:03;;;;;;;3.10;1.60;;;14.40;99.90;;;;;;5115178;28;20191;-85
2022/08/29 01:03:32;;;;;;;2.03;1.50;;;14.40;99.90;;;;;;5115090;28;20196;-87
2022/08/29 01:05:59;;;;;;;2.80;1.50;;;14.40;99.90;;;;;;5115090;28;20192;-88
2022/08/29 01:08:26;;;;;;;2.10;1.70;;;14.40;99.90;;;;;;5114798;28;20202;-88
2022/08/29 01:13:42;;;;;;;2.20;1.50;;;14.50;99.90;;;;;;5114265;28;20284;-88
2022/08/29 01:16:12;;;;;;;2.60;1.83;;;14.40;99.90;;;;;;5102819;28;20295;-88
2022/08/29 01:18:41;;;;;;;2.67;1.70;;;14.50;99.90;;;;;;5094670;28;20193;-88
2022/08/29 01:21:13;;;;;;;2.27;1.60;;;14.40;99.90;;;;;;5094239;28;20189;-88
2022/08/29 01:23:44;;;;;;;2.30;1.77;;;14.40;99.90;;;;;;5094024;28;20197;-88
2022/08/29 01:26:13;;;;;;;2.83;1.77;;;14.40;99.90;;;;;;5094696;28;20275;-87
2022/08/29 01:28:42;;;;;;;3.47;1.70;;;14.50;99.90;;;;;;5093654;28;20279;-85
2022/08/29 01:31:12;;;;;;;2.70;1.73;;;14.50;99.90;;;;;;5094967;28;20287;-84
2022/08/29 01:33:43;;;;;;;2.53;1.87;;;14.50;99.90;;;;;;5099203;28;20235;-88
2022/08/29 01:36:13;;;;;;;2.87;1.80;;;14.50;99.90;;;;;;5114537;28;20348;-86
2022/08/29 01:38:40;;;;;;;2.97;1.47;;;14.50;99.90;;;;;;5114965;28;20199;-89
2022/08/29 01:41:08;;;;;;;2.80;1.70;;;14.50;99.90;;;;;;5115001;28;20199;-85
2022/08/29 01:43:41;;;;;;;2.47;1.60;;;14.50;99.90;;;;;;5113697;28;20279;-86
2022/08/29 01:46:09;;;;;;;3.23;1.70;;;14.50;99.90;;;;;;5097718;28;20242;-87
2022/08/29 01:48:37;;;;;;;4.00;1.57;;;14.50;99.90;;;;;;5095965;28;20592;-84
2022/08/29 01:51:05;;;;;;;1.67;1.57;;;14.50;99.90;;;;;;5097366;28;20568;-81
2022/08/29 01:53:32;;;;;;;1.93;1.50;;;14.50;99.90;;;;;;5097098;28;20224;-85
2022/08/29 01:55:59;;;;;;;3.03;1.80;;;14.50;99.90;;;;;;5097017;28;20211;-82
2022/08/29 01:58:26;;;;;;;2.63;1.80;;;14.50;99.90;;;;;;5097420;28;20222;-84
2022/08/29 02:00:55;;;;;;;3.47;1.97;;;14.50;99.90;;;;;;5099061;28;20364;-83
2022/08/29 02:03:21;;;;;;;4.23;1.60;;;14.50;99.90;;;;;;5098546;28;20299;-86
2022/08/29 02:05:48;;;;;;;1.83;1.63;;;14.50;99.90;;;;;;5117808;28;20732;-85
2022/08/29 02:08:15;;;;;;;2.90;1.77;;;14.50;99.90;;;;;;5121040;28;20192;-86
2022/08/29 02:10:42;;;;;;;2.60;1.77;;;14.50;99.90;;;;;;5101091;28;20222;-81
2022/08/29 02:13:10;;;;;;;3.60;1.98;;;14.50;99.90;;;;;;5100811;28;20216;-84
2022/08/29 02:15:37;;;;;;;2.57;1.87;;;14.50;99.90;;;;;;5100788;28;20208;-86
2022/08/29 02:18:06;;;;;;;2.53;1.80;;;14.60;99.90;;;;;;5100706;28;20203;-86
2022/08/29 02:20:32;;;;;;;2.37;2.10;;;14.60;99.90;;;;;;5100229;28;20212;-84
2022/08/29 02:22:59;;;;;;;2.73;2.13;;;14.60;99.90;;;;;;5099525;28;20260;-86
2022/08/29 02:25:42;;;;;;;3.57;2.30;;;14.60;99.90;;;;;;5099400;28;20262;-84
2022/08/29 02:28:10;;;;;;;2.70;2.03;;;14.70;99.90;;;;;;5099120;28;20204;-80
2022/08/29 02:30:39;;;;;;;3.03;1.90;;;14.70;99.90;;;;;;5097097;28;20575;-86
2022/08/29 02:33:08;;;;;;;3.10;2.10;;;14.70;99.90;;;;;;5097200;28;20223;-85
2022/08/29 02:35:36;;;;;;;4.63;2.40;;;14.70;99.90;;;;;;5099779;28;20310;-81
2022/08/29 02:38:04;;;;;;;3.78;2.13;;;14.70;99.90;;;;;;5116039;28;20287;-86
2022/08/29 02:40:31;;;;;;;3.33;2.07;;;14.80;99.90;;;;;;5114201;28;20259;-79
2022/08/29 02:42:59;;;;;;;2.33;1.83;;;14.80;99.90;;;;;;5099036;28;20559;-79
2022/08/29 02:45:26;;;;;;;2.30;2.10;;;14.80;99.90;;;;;;5096412;28;20208;-84
2022/08/29 02:47:54;;;;;;;3.95;2.45;;;14.80;99.90;;;;;;5105602;28;20727;-83
2022/08/29 02:50:24;;;;;;;3.90;2.60;;;14.90;99.90;;;;;;5116419;28;20199;-82
2022/08/29 02:52:51;;;;;;;3.88;2.42;;;14.90;99.90;;;;;;5109732;28;20301;-78
2022/08/29 02:55:20;;;;;;;7.43;2.63;;;14.90;99.90;;;;;;5095636;28;20227;-79
2022/08/29 02:57:47;;;;;;;5.20;2.42;;;15.00;99.90;;;;;;5095498;28;20227;-79
2022/08/29 03:00:17;;;;;;;5.17;2.50;;;14.90;99.90;;;;;;5093832;28;20203;-78
2022/08/29 03:02:46;;;;;;;4.43;2.72;;;15.00;99.90;;;;;;5102301;28;20205;-79
2022/08/29 03:05:14;;;;;;;4.17;2.70;;;15.00;99.90;;;;;;5115701;28;20200;-78
2022/08/29 03:07:42;;;;;;;3.40;2.10;;;14.90;99.90;;;;;;5115620;28;20534;-78
2022/08/29 03:10:10;;;;;;;3.10;2.57;;;14.90;99.90;;;;;;5102019;28;20204;-81
2022/08/29 03:12:37;;;;;;;3.93;2.53;;;14.90;99.90;;;;;;5095264;28;20223;-85
2022/08/29 03:15:06;;;;;;;3.73;2.37;;;14.90;99.90;;;;;;5096198;28;20231;-87
2022/08/29 03:17:33;;;;;;;3.20;2.40;;;14.90;99.90;;;;;;5096855;28;20284;-83
2022/08/29 03:20:00;;;;;;;4.03;2.40;;;14.90;99.90;;;;;;5095540;28;20291;-81
2022/08/29 03:22:28;;;;;;;3.78;2.65;;;15.00;99.90;;;;;;5095079;28;20481;-78
2022/08/29 03:24:56;;;;;;;2.78;2.40;;;15.00;99.90;;;;;;5093840;28;20196;-81
2022/08/29 03:27:23;;;;;;;3.60;2.27;;;15.00;99.90;;;;;;5093808;28;20778;-79
2022/08/29 03:29:50;;;;;;;3.77;2.20;;;15.00;99.90;;;;;;5094259;28;20254;-79
2022/08/29 03:32:16;;;;;;;3.40;2.30;;;15.00;99.90;;;;;;5094307;28;20520;-79
2022/08/29 03:34:43;;;;;;;5.13;2.50;;;15.10;99.90;;;;;;5093155;28;20208;-80
2022/08/29 03:37:10;;;;;;;3.58;2.92;;;15.10;99.90;;;;;;5094865;28;20204;-80
2022/08/29 03:39:37;;;;;;;4.03;2.40;;;15.10;99.90;;;;;;5094305;28;20200;-79
2022/08/29 03:42:07;;;;;;;2.90;2.30;;;15.10;99.90;;;;;;5094141;28;20766;-83
2022/08/29 03:44:35;;;;;;;3.03;2.40;;;15.10;99.90;;;;;;5094252;28;20226;-81
2022/08/29 03:47:03;;;;;;;3.00;2.08;;;15.10;99.90;;;;;;5095681;28;20316;-86
2022/08/29 03:49:30;;;;;;;3.15;2.55;;;15.20;99.90;;;;;;5098477;28;20201;-85
2022/08/29 03:51:57;;;;;;;3.88;2.40;;;15.20;99.90;;;;;;5117548;28;20196;-88
2022/08/29 03:54:24;;;;;;;4.53;2.63;;;15.20;99.90;;;;;;5116106;28;20212;-85
2022/08/29 03:56:51;;;;;;;2.53;2.27;;;15.20;99.90;;;;;;5105026;28;20247;-85
2022/08/29 03:59:19;;;;;;;4.15;2.70;;;15.20;99.90;;;;;;5096310;28;20188;-87
2022/08/29 04:01:47;;;;;;;3.30;2.30;;;15.20;99.90;;;;;;5096179;28;20299;-85
2022/08/29 04:05:05;;;;;;;3.22;2.33;;;15.20;99.90;;;;;;5094937;28;20611;-81
2022/08/29 04:07:02;;;;;;;4.38;2.40;;;15.20;99.90;;;;;;5095603;28;20254;-84
2022/08/29 04:09:29;;;;;;;2.75;2.20;;;15.30;99.90;;;;;;5095806;28;20503;-85
2022/08/29 04:11:58;;;;;;;2.53;2.30;;;15.30;99.90;;;;;;5096306;28;20292;-86
2022/08/29 04:14:28;;;;;;;3.90;2.53;;;15.30;99.90;;;;;;5095025;28;20647;-86
2022/08/29 04:16:55;;;;;;;3.57;2.37;;;15.30;99.90;;;;;;5109808;28;20207;-85
2022/08/29 04:19:22;;;;;;;3.03;2.40;;;15.30;99.90;;;;;;5116630;28;20205;-87
2022/08/29 04:21:49;;;;;;;4.45;2.90;;;15.30;99.90;;;;;;5115872;28;20191;-85
2022/08/29 04:24:17;;;;;;;2.63;2.30;;;15.30;99.90;;;;;;5115039;28;20192;-86
2022/08/29 04:26:44;;;;;;;2.40;2.20;;;15.30;99.90;;;;;;5115996;28;20195;-85
2022/08/29 04:29:12;;;;;;;3.93;2.37;;;15.30;99.90;;;;;;5097406;28;20279;-84
2022/08/29 04:31:42;;;;;;;4.10;2.22;;;15.30;99.90;;;;;;5095535;28;20221;-79
2022/08/29 04:34:11;;;;;;;4.57;2.80;;;15.40;99.90;;;;;;5095293;28;20229;-86
2022/08/29 04:36:41;;;;;;;3.60;2.38;;;15.40;99.90;;;;;;5094417;28;20199;-79
2022/08/29 04:39:09;;;;;;;3.83;2.45;;;15.40;99.90;;;;;;5093874;28;20662;-85
2022/08/29 04:41:36;;;;;;;3.70;2.35;;;15.40;99.90;;;;;;5094930;28;20207;-86
2022/08/29 04:44:04;;;;;;;3.17;2.17;;;15.40;99.90;;;;;;5107099;28;20291;-81
2022/08/29 04:46:31;;;;;;;3.40;2.73;;;15.40;99.90;;;;;;5114565;28;20345;-86
2022/08/29 04:48:59;;;;;;;3.50;2.40;;;15.40;99.90;;;;;;5115407;28;20246;-86
2022/08/29 04:51:28;;;;;;;2.60;2.20;;;15.30;99.90;;;;;;5112131;28;20213;-79
2022/08/29 04:53:55;;;;;;;2.00;1.80;;;15.30;99.90;;;;;;5113123;28;20226;-79
2022/08/29 04:56:22;;;;;;;3.50;2.50;;;15.30;99.90;;;;;;5098137;28;20529;-84
2022/08/29 04:58:50;;;;;;;3.90;2.83;;;15.30;99.90;;;;;;5094045;28;20199;-83
2022/08/29 05:01:20;;;;;;;3.13;2.50;;;15.30;99.90;;;;;;5093807;28;20204;-83
2022/08/29 05:03:48;;;;;;;4.32;2.80;;;15.30;99.90;;;;;;5093882;28;20189;-86
2022/08/29 05:06:18;;;;;;;4.05;2.50;;;15.30;99.90;;;;;;5113275;28;20207;-84
2022/08/29 05:08:46;;;;;;;4.22;2.47;;;15.30;99.90;;;;;;5115755;28;20199;-86
2022/08/29 05:11:15;;;;;;;3.37;2.50;;;15.30;99.90;;;;;;5114881;28;20199;-85
2022/08/29 05:13:42;;;;;;;4.43;2.83;;;15.30;99.90;;;;;;5109320;28;20231;-80
2022/08/29 05:16:13;;;;;;;3.40;2.67;;;15.30;99.90;;;;;;5093928;28;20223;-79
2022/08/29 05:18:43;;;;;;;3.17;2.65;;;15.30;99.90;;;;;;5092490;28;20275;-80
2022/08/29 05:21:11;;;;;;;4.93;2.88;;;15.30;99.90;;;;;;5092402;28;20208;-86
2022/08/29 05:23:39;;;;;;;3.90;3.07;;;15.40;99.90;;;;;;5094008;28;20197;-86
2022/08/29 05:26:06;;;;;;;3.60;2.80;;;15.40;99.90;;;;;;5095065;28;20292;-86
2022/08/29 05:28:34;;;;;;;4.63;3.07;;;15.40;99.90;;;;;;5094566;28;20193;-85
2022/08/29 05:31:01;;;;;;;3.97;2.63;;;15.40;99.90;;;;;;5094894;28;20205;-85
2022/08/29 05:33:28;;;;;;;3.70;3.03;;;15.40;99.90;;;;;;5091569;28;20222;-83
2022/08/29 05:35:55;;;;;;;4.30;2.80;;;15.40;99.90;;;;;;5092852;28;20202;-83
2022/08/29 05:38:22;;;;;;;4.40;2.60;;;15.40;99.90;;;;;;5094124;28;20193;-83
2022/08/29 05:40:50;;;;;;;3.88;2.75;;;15.50;99.90;;;;;;5091659;28;20316;-81
2022/08/29 05:43:17;;;;;;;3.30;2.70;;;15.50;99.90;;;;;;5093302;28;20201;-80
2022/08/29 05:45:44;;;;;;;4.10;3.03;;;15.50;99.90;;;;;;5093866;28;20515;-86
2022/08/29 05:48:13;;;;;;;4.45;3.10;;;15.50;99.90;;;;;;5093919;28;20389;-86
2022/08/29 05:50:40;;;;;;;5.13;3.23;;;15.50;99.90;;;;;;5094071;28;20250;-79
2022/08/29 05:53:07;;;;;;;4.55;2.60;;;15.60;99.90;;;;;;5092742;28;20303;-80
2022/08/29 05:55:38;;;;;;;3.80;2.70;;;15.70;99.90;;;;;;5091809;28;20213;-83
2022/08/29 05:58:06;;;;;;;3.58;2.72;;;15.70;99.90;;;;;;5094076;28;20192;-82
2022/08/29 06:00:34;;;;;;;3.65;2.80;;;15.80;99.90;;;;;;5093877;28;20197;-85
2022/08/29 06:03:00;;;;;;;6.10;3.00;;;15.80;99.90;;;;;;5093363;28;20291;-85
2022/08/29 06:05:27;;;;;;;5.38;3.20;;;15.90;99.90;;;;;;5093866;28;20192;-84
2022/08/29 06:07:54;;;;;;;4.57;2.90;;;16.00;99.90;;;;;;5093682;28;20223;-85
2022/08/29 06:10:21;;;;;;;4.50;2.50;;;16.10;99.90;;;;;;5093397;28;20216;-82
2022/08/29 06:12:48;;;;;;;3.55;2.47;;;16.10;99.90;;;;;;5095277;28;20239;-84
2022/08/29 06:15:17;;;;;;;3.58;2.50;;;16.20;99.90;;;;;;5115327;28;20287;-84
2022/08/29 06:17:43;;;;;;;5.95;2.97;;;16.30;99.90;;;;;;5114921;28;20287;-82
2022/08/29 06:20:11;;;;;;;6.28;3.50;;;16.40;99.90;;;;;;5114198;28;20208;-82
2022/08/29 06:22:39;;;;;;;4.22;2.33;;;16.50;99.90;;;;;;5114273;28;20199;-82
2022/08/29 06:25:07;;;;;;;5.00;2.80;;;16.50;99.90;;;;;;5114000;28;20279;-83
2022/08/29 06:27:34;;;;;;;5.57;3.10;;;16.60;99.90;;;;;;5111165;28;20283;-83
2022/08/29 06:30:02;;;;;;;8.07;3.00;;;16.60;99.90;;;;;;5092116;28;20201;-81
2022/08/29 06:32:30;;;;;;;4.25;2.85;;;16.70;99.90;;;;;;5093323;28;20216;-83
2022/08/29 06:34:57;;;;;;;4.40;2.38;;;16.70;99.90;;;;;;5097670;28;20216;-83
2022/08/29 06:37:24;;;;;;;5.18;2.60;;;16.70;98.40;;;;;;5102028;28;20214;-84
2022/08/29 06:39:51;;;;;;;4.63;2.28;;;16.80;95.40;;;;;;5117987;28;20206;-83
2022/08/29 06:42:22;;;;;;;4.25;2.25;;;16.80;92.30;;;;;;5098302;28;20371;-83
2022/08/29 06:44:49;;;;;;;5.97;2.53;;;16.90;91.40;;;;;;5097905;28;20196;-83
2022/08/29 06:47:17;;;;;;;4.18;2.33;;;16.90;48.60;;;;;;5099620;28;20261;-83
2022/08/29 06:49:45;;;;;;;3.95;2.40;;;17.00;39.40;;;;;;5102786;28;20212;-83
2022/08/29 06:52:13;;;;;;;3.83;2.20;;;17.00;24.90;;;;;;5114474;28;20203;-84
2022/08/29 06:54:40;;;;;;;5.90;2.90;;;17.10;22.50;;;;;;5129585;28;20230;-84
2022/08/29 06:57:07;;;;;;;9.95;3.63;;;17.10;1.00;;;;;;5128537;28;20192;-81
2022/08/29 06:59:34;;;;;;;7.20;2.90;;;17.20;1.00;;;;;;5129037;28;20192;-82
2022/08/29 07:02:02;;;;;;;3.55;2.72;;;17.20;1.00;;;;;;5125333;28;20199;-81
2022/08/29 07:04:29;;;;;;;3.65;2.40;;;17.30;1.00;;;;;;5131208;28;20264;-83
2022/08/29 07:06:58;;;;;;;4.72;2.35;;;17.40;1.00;;;;;;5127917;28;20193;-80
2022/08/29 07:09:25;;;;;;;4.38;2.67;;;17.50;1.00;;;;;;5127685;28;20219;-81
2022/08/29 07:11:52;;;;;;;5.50;2.60;;;17.50;1.00;;;;;;5120637;28;20195;-85
2022/08/29 07:14:19;;;;;;;5.25;2.75;;;17.60;1.00;;;;;;5124260;28;20211;-82
2022/08/29 07:16:46;;;;;;;5.47;2.65;;;17.60;1.00;;;;;;5117434;28;20204;-84
2022/08/29 07:19:13;;;;;;;4.13;2.72;;;17.70;1.00;;;;;;5122504;28;20294;-82
2022/08/29 07:21:40;;;;;;;3.33;2.65;;;17.70;1.00;;;;;;5112702;28;20202;-83
2022/08/29 07:24:09;;;;;;;4.38;2.47;;;17.80;1.00;;;;;;5120827;28;20235;-86
2022/08/29 07:26:40;;;;;;;4.45;2.67;;;17.80;1.00;;;;;;5116837;28;20203;-81
2022/08/29 07:29:10;;;;;;;3.53;2.40;;;17.90;1.00;;;;;;5099189;28;20216;-82
2022/08/29 07:31:38;;;;;;;5.47;2.97;;;18.00;1.00;;;;;;5095535;28;20328;-81
2022/08/29 07:34:05;;;;;;;6.53;2.38;;;18.10;1.00;;;;;;5103297;28;20212;-81
2022/08/29 07:36:32;;;;;;;4.18;2.90;;;18.20;1.00;;;;;;5107508;28;20235;-79
2022/08/29 07:39:00;;;;;;;4.40;2.40;;;18.30;1.00;;;;;;5116872;28;20241;-84
2022/08/29 07:41:28;;;;;;;4.40;2.15;;;18.40;1.00;;;;;;5104734;28;20585;-85
2022/08/29 07:43:55;;;;;;;5.80;2.33;;;18.40;1.00;;;;;;5095767;28;20193;-78
2022/08/29 07:46:24;;;;;;;3.15;2.00;;;18.50;1.00;;;;;;5096138;28;20679;-79
2022/08/29 07:48:51;;;;;;;6.60;2.45;;;18.60;1.00;;;;;;5093857;28;20213;-78
2022/08/29 07:51:21;;;;;;;4.05;2.45;;;18.70;1.00;;;;;;5094738;28;20604;-81
2022/08/29 07:53:49;;;;;;;4.43;2.35;;;18.80;1.00;;;;;;5096173;28;20216;-78
2022/08/29 07:56:17;;;;;;;5.20;2.63;;;18.80;1.00;;;;;;5112733;28;20214;-83
2022/08/29 07:58:46;;;;;;;4.47;2.30;;;18.90;1.00;;;;;;5094033;28;20211;-79
2022/08/29 08:01:12;;;;;;;5.53;2.50;;;18.90;1.00;;;;;;5093261;28;20296;-80
2022/08/29 08:03:41;;;;;;;4.53;2.38;;;19.00;1.00;;;;;;5094610;28;20204;-79
2022/08/29 08:06:09;;;;;;;4.70;2.13;;;19.00;1.00;;;;;;5094203;28;20279;-77
2022/08/29 08:08:36;;;;;;;4.13;2.30;;;19.10;1.00;;;;;;5093629;28;20215;-84
2022/08/29 08:11:04;;;;;;;7.20;2.90;;;19.10;1.00;;;;;;5094170;28;20204;-79
2022/08/29 08:13:31;;;;;;;7.90;2.80;;;19.20;1.00;;;;;;5094132;28;20212;-77
2022/08/29 08:16:03;;;;;;;4.63;2.22;;;19.30;1.00;;;;;;5101784;22;20188;-83
2022/08/29 08:18:30;;;;;;;5.18;2.42;;;19.30;1.00;;;;;;5121118;22;20235;-78
2022/08/29 08:20:57;;;;;;;5.00;1.70;;;19.30;1.00;;;;;;5114093;28;20508;-79
2022/08/29 08:23:24;;;;;;;4.93;2.47;;;19.40;1.00;;;;;;5109286;28;20235;-81
2022/08/29 08:25:51;;;;;;;5.25;2.35;;;19.50;1.00;;;;;;5093801;28;20185;-79
2022/08/29 08:28:18;;;;;;;6.13;1.88;;;19.50;1.00;;;;;;5093565;28;20588;-80
2022/08/29 08:30:45;;;;;;;8.55;2.40;;;19.60;1.00;;;;;;5096669;28;20207;-86
2022/08/29 08:33:13;;;;;;;4.00;1.92;;;19.80;1.00;;;;;;5101755;28;20266;-87
2022/08/29 08:35:41;;;;;;;6.10;2.17;;;20.00;1.00;;;;;;5116141;28;20222;-90
2022/08/29 08:38:08;;;;;;;4.95;2.30;;;20.20;1.00;;;;;;5101677;28;21033;-87
2022/08/29 08:40:42;;;;;;;4.72;2.00;;;20.40;1.00;;;;;;5099545;28;20214;-88
2022/08/29 08:43:13;;;;;;;5.00;1.80;;;20.50;1.00;;;;;;5094279;28;20203;-79
2022/08/29 08:45:42;;;;;;;5.53;2.30;;;20.50;1.00;;;;;;5092885;28;20581;-84
2022/08/29 08:48:14;;;;;;;3.03;2.03;;;20.40;1.00;;;;;;5093495;28;20288;-85
2022/08/29 08:50:45;;;;;;;4.70;1.98;;;20.30;1.00;;;;;;5092193;28;20199;-79
2022/08/29 08:53:18;;;;;;;8.15;2.00;;;20.30;1.00;;;;;;5092848;28;20207;-77
2022/08/29 08:55:48;;;;;;;4.75;1.92;;;20.30;1.00;;;;;;5092442;28;20235;-78
2022/08/29 08:58:25;;;;;;;5.38;2.13;;;20.30;1.00;;;;;;5091261;28;20211;-77
2022/08/29 09:00:56;;;;;;;4.28;2.33;;;20.30;1.00;;;;;;5092936;28;20199;-76
2022/08/29 09:03:51;;;;;;;3.30;2.05;;;20.40;1.00;;;;;;5092473;28;20188;-77
2022/08/29 09:06:30;;;;;;;4.25;1.80;;;20.50;1.00;;;;;;5091640;28;20191;-79
2022/08/29 09:09:11;;;;;;;5.60;2.50;;;20.60;1.00;;;;;;5092406;28;20200;-80
2022/08/29 09:11:47;;;;;;;4.95;1.98;;;20.60;1.00;;;;;;5092029;28;20188;-78
2022/08/29 09:14:32;;;;;;;4.30;2.15;;;20.50;1.00;;;;;;5091991;28;20303;-77
2022/08/29 09:17:02;;;;;;;5.47;1.80;;;20.50;1.00;;;;;;5091170;28;20295;-78
2022/08/29 09:19:29;;;;;;;5.10;2.42;;;20.50;99.90;;;;;;5091035;28;20239;-77
2022/08/29 09:22:05;;;;;;;3.92;1.98;;;20.50;99.90;;;;;;5091458;28;20203;-77
2022/08/29 09:24:38;;;;;;;5.78;1.90;;;20.50;1.00;;;;;;5091837;28;20287;-78
2022/08/29 09:27:07;;;;;;;3.78;2.05;;;20.40;1.00;;;;;;5091963;28;20204;-81
2022/08/29 09:29:36;;;;;;;4.57;2.20;;;20.50;1.00;;;;;;5091228;28;20204;-77
2022/08/29 09:32:10;;;;;;;4.18;2.08;;;20.50;1.00;;;;;;5112242;28;20253;-76
2022/08/29 09:34:39;;;;;;;7.95;2.22;;;20.50;1.00;;;;;;5107875;28;20624;-77
2022/08/29 09:37:22;;;;;;;4.93;2.22;;;20.50;1.00;;;;;;5111590;28;20196;-79
2022/08/29 09:39:55;;;;;;;4.35;2.40;;;20.70;99.90;;;;;;5113801;28;20199;-81
2022/08/29 09:42:23;;;;;;;6.38;2.20;;;20.90;99.90;;;;;;5114101;28;20263;-84
2022/08/29 09:44:54;;;;;;;5.53;2.30;;;21.10;1.00;;;;;;5113216;28;20196;-83
2022/08/29 09:47:23;;;;;;;3.38;2.00;;;21.30;1.00;;;;;;5113394;28;20187;-81
2022/08/29 09:50:08;;;;;;;3.40;2.25;;;21.40;1.00;;;;;;5112296;28;20222;-77
2022/08/29 09:52:38;;;;;;;5.60;2.05;;;21.50;1.00;;;;;;5102279;28;20211;-78
2022/08/29 09:55:21;;;;;;;7.47;2.47;;;21.50;1.00;;;;;;5090791;28;20300;-78
2022/08/29 09:57:59;;;;;;;3.70;2.10;;;21.50;99.90;;;;;;5091012;28;20204;-78
2022/08/29 10:00:30;;;;;;;4.10;2.03;;;21.40;1.00;;;;;;5091923;28;20204;-78
2022/08/29 10:02:59;;;;;;;5.53;2.10;;;21.30;1.00;;;;;;5091714;28;20195;-76
2022/08/29 10:05:41;;;;;;;3.05;2.08;;;21.20;94.10;;;;;;5091113;28;20200;-78
2022/08/29 10:08:26;;;;;;;5.32;2.00;;;21.20;99.90;;;;;;5094111;28;20787;-83
2022/08/29 10:10:58;;;;;;;4.18;1.75;;;21.20;99.90;;;;;;5117538;28;20279;-87
2022/08/29 10:13:32;;;;;;;3.40;1.92;;;21.20;1.00;;;;;;5113935;28;21946;-82
2022/08/29 10:16:06;;;;;;;3.72;2.08;;;21.20;1.00;;;;;;5110377;28;20203;-88
2022/08/29 10:18:43;;;;;;;4.40;2.00;;;21.20;1.00;;;;;;5114981;28;20258;-88
2022/08/29 10:21:26;;;;;;;4.78;2.40;;;21.20;99.90;;;;;;5115909;28;20241;-86
2022/08/29 10:24:12;;;;;;;3.55;2.20;;;21.20;93.10;;;;;;5106466;28;20192;-83
2022/08/29 10:26:48;;;;;;;2.53;1.70;;;21.20;1.00;;;;;;5111083;28;20223;-85
2022/08/29 10:29:25;;;;;;;3.45;2.08;;;21.10;99.90;;;;;;5108429;28;20222;-88
2022/08/29 10:32:02;;;;;;;4.05;2.00;;;21.00;1.00;;;;;;5118021;28;20211;-86
2022/08/29 10:34:42;;;;;;;3.22;1.70;;;21.10;99.90;;;;;;5117050;28;20670;-84
2022/08/29 10:37:16;;;;;;;15.50;2.50;;;21.00;1.00;;;;;;5099370;22;20282;-84
2022/08/29 10:39:53;;;;;;;6.82;2.17;;;20.90;1.00;;;;;;5076311;28;20588;-84
2022/08/29 10:42:24;;;;;;;4.80;2.05;;;20.90;1.00;;;;;;5075529;28;20185;-79
2022/08/29 10:45:03;;;;;;;4.55;1.85;;;20.80;1.00;;;;;;5056694;28;20201;-87
2022/08/29 10:47:35;;;;;;;4.82;2.13;;;20.80;1.00;;;;;;5056787;28;20229;-83
2022/08/29 10:50:18;;;;;;;5.97;2.17;;;20.70;99.90;;;;;;5056689;28;20190;-85
2022/08/29 10:52:53;;;;;;;3.85;2.25;;;20.70;1.00;;;;;;5056787;28;20204;-83
2022/08/29 10:55:38;;;;;;;5.78;2.08;;;20.70;99.90;;;;;;5057120;28;20236;-82
2022/08/29 10:58:10;;;;;;;2.78;1.80;;;20.70;99.90;;;;;;5074713;28;20288;-79
2022/08/29 11:00:45;;;;;;;4.30;2.20;;;20.70;99.90;;;;;;5076309;28;20197;-77
2022/08/29 11:03:22;;;;;;;3.25;1.85;;;20.70;1.00;;;;;;5067568;28;20615;-84
2022/08/29 11:05:57;;;;;;;3.88;1.65;;;20.70;99.90;;;;;;5077359;28;20205;-78
2022/08/29 11:08:29;;;;;;;4.80;2.03;;;20.70;99.90;;;;;;5079353;28;20196;-83
2022/08/29 11:10:57;;;;;;;3.85;1.65;;;20.70;1.00;;;;;;5084955;28;20192;-78
2022/08/29 11:13:28;;;;;;;4.60;2.05;;;20.70;99.90;;;;;;5074683;28;20189;-78
2022/08/29 11:16:04;;;;;;;5.15;2.33;;;20.80;1.00;;;;;;5073410;28;20217;-80
2022/08/29 11:18:38;;;;;;;3.90;1.83;;;20.70;99.90;;;;;;5071528;28;20205;-80
2022/08/29 11:21:13;;;;;;;6.30;2.55;;;20.70;99.90;;;;;;5053486;28;20212;-78
2022/08/29 11:23:42;;;;;;;3.30;1.88;;;20.70;69.90;;;;;;5058481;28;20192;-78
2022/08/29 11:26:20;;;;;;;4.72;2.22;;;20.80;99.90;;;;;;5093060;28;20215;-80
2022/08/29 11:28:55;;;;;;;3.50;1.75;;;20.80;1.00;;;;;;5080494;28;20209;-82
2022/08/29 11:31:38;;;;;;;3.25;2.00;;;20.90;99.90;;;;;;5084082;28;20209;-78
2022/08/29 11:34:17;;;;;;;5.13;2.20;;;20.90;7.90;;;;;;5052797;28;20267;-77
2022/08/29 11:36:55;;;;;;;3.50;2.00;;;21.00;1.00;;;;;;5046632;28;20257;-76
2022/08/29 11:39:46;;;;;;;3.05;1.50;;;21.20;99.90;;;;;;5060733;28;20606;-76
2022/08/29 11:42:18;;;;;;;3.22;1.80;;;21.20;1.00;;;;;;5054245;28;20206;-78
2022/08/29 11:44:48;;;;;;;5.70;2.40;;;21.30;1.00;;;;;;5053095;28;20293;-85
2022/08/29 11:47:39;;;;;;;3.42;1.80;;;21.30;1.00;;;;;;5041523;28;20203;-87
2022/08/29 11:50:21;;;;;;;3.75;2.33;;;21.40;1.00;;;;;;5036315;28;20206;-89
2022/08/29 11:52:55;;;;;;;4.63;2.33;;;21.50;18.20;;;;;;5051532;28;20202;-88
2022/08/29 11:55:31;;;;;;;6.20;2.35;;;21.60;99.90;;;;;;5055870;28;20237;-89
2022/08/29 11:58:05;;;;;;;5.70;2.40;;;21.60;1.00;;;;;;5036143;28;20221;-88
2022/08/29 12:00:45;;;;;;;8.48;2.10;;;21.60;1.00;;;;;;5035038;28;20890;-87
2022/08/29 12:03:52;;;;;;;5.97;2.28;;;21.50;53.80;;;;;;5034934;28;20711;-90
2022/08/29 12:06:58;;;;;;;6.63;2.50;;;21.40;1.00;;;;;;5036649;28;20313;-88
2022/08/29 12:09:35;;;;;;;5.13;2.38;;;21.10;99.90;;;;;;5035625;28;20283;-89
2022/08/29 12:12:35;;;;;;;3.78;2.15;;;21.10;99.90;;;;;;5035819;28;20213;-89
2022/08/29 12:15:45;;;;;;;3.10;1.88;;;21.10;99.90;;;;;;5035569;28;20218;-87
2022/08/29 12:18:33;;;;;;;3.55;2.20;;;21.20;1.00;;;;;;5061253;28;20258;-88
2022/08/29 12:21:02;;;;;;;4.65;2.70;;;21.30;1.00;;;;;;5075663;28;20239;-90
2022/08/29 12:23:31;;;;;;;4.40;2.10;;;21.30;1.00;;;;;;5033931;28;20625;-89
2022/08/29 12:26:01;;;;;;;3.72;2.05;;;21.40;99.90;;;;;;5044250;28;20204;-89
2022/08/29 12:28:35;;;;;;;3.35;2.30;;;21.50;99.90;;;;;;5050594;28;20210;-84
2022/08/29 12:31:45;;;;;;;4.13;2.25;;;21.70;1.00;;;;;;5046297;28;20858;-88
2022/08/29 12:34:33;;;;;;;3.80;2.03;;;21.90;99.90;;;;;;5018972;28;20212;-87
2022/08/29 12:37:21;;;;;;;3.63;1.90;;;21.90;1.00;;;;;;5061704;28;20595;-86
2022/08/29 12:40:07;;;;;;;7.47;2.35;;;22.10;1.00;;;;;;5034689;28;20281;-83
2022/08/29 12:42:44;;;;;;;2.83;1.83;;;22.20;1.00;;;;;;5052235;28;20292;-85
2022/08/29 12:45:16;;;;;;;2.67;1.95;;;22.20;1.00;;;;;;5056643;28;20329;-82
2022/08/29 12:47:50;;;;;;;4.90;2.50;;;22.20;1.00;;;;;;5045565;28;20220;-81
2022/08/29 12:50:20;;;;;;;4.75;2.00;;;22.10;99.90;;;;;;5051968;28;20229;-83
2022/08/29 12:52:59;;;;;;;4.43;2.22;;;22.10;99.90;;;;;;5059583;28;20212;-85
2022/08/29 12:55:28;;;;;;;6.22;1.90;;;22.20;1.00;;;;;;5060751;28;20236;-83
2022/08/29 12:57:56;;;;;;;5.47;2.40;;;22.20;99.90;;;;;;5056443;28;20609;-82
2022/08/29 13:00:26;;;;;;;3.95;2.25;;;22.40;39.80;;;;;;5059538;28;20216;-84
2022/08/29 13:03:01;;;;;;;3.05;1.75;;;22.80;86.60;;;;;;5047349;28;20202;-84
2022/08/29 13:05:30;;;;;;;4.38;2.35;;;23.10;1.00;;;;;;5059515;28;20269;-81
2022/08/29 13:07:59;;;;;;;4.90;2.15;;;23.60;99.90;;;;;;5055301;28;20214;-83
2022/08/29 13:10:26;;;;;;;3.25;2.05;;;24.00;1.00;;;;;;5061830;28;20213;-82
2022/08/29 13:12:55;;;;;;;4.70;2.22;;;24.30;1.00;;;;;;5060097;28;20217;-83